Time;durP1;ratioP1;P1;durP2;ratioP2;P2;SDS_P1;SDS_P2;PMS_P1;PMS_P2;Temp;Humidity;BMP_temperature;BMP_pressure;BME280_temperature;BME280_humidity;BME280_pressure;Samples;Min_cycle;Max_cycle;Signal;HPM_P1;HPM_P2
2022/05/18 00:00:07;;;;;;;9.05;4.53;;;;;;;15.62;71.55;101753.09;4990870;28;20042;-77
2022/05/18 00:02:35;;;;;;;7.80;4.50;;;;;;;15.57;71.96;101759.84;4984423;28;20034;-69
2022/05/18 00:05:02;;;;;;;9.93;5.38;;;;;;;15.53;72.60;101755.59;4980349;28;20069;-70
2022/05/18 00:07:27;;;;;;;9.88;5.15;;;;;;;15.47;73.74;101763.41;4991032;28;20018;-77
2022/05/18 00:09:53;;;;;;;5.63;4.70;;;;;;;15.41;72.66;101756.53;4986324;28;20030;-77
2022/05/18 00:12:19;;;;;;;7.88;5.65;;;;;;;15.41;74.09;101758.41;5010859;28;20070;-70
2022/05/18 00:14:44;;;;;;;6.63;4.25;;;;;;;15.35;73.14;101759.78;4990771;28;20038;-76
2022/05/18 00:17:10;;;;;;;8.45;5.10;;;;;;;15.29;72.98;101761.13;4985703;28;20393;-70
2022/05/18 00:19:36;;;;;;;5.43;4.82;;;;;;;15.26;72.45;101764.09;4970427;28;20035;-69
2022/05/18 00:22:01;;;;;;;7.22;4.80;;;;;;;15.21;73.14;101766.31;4984921;28;20030;-78
2022/05/18 00:24:27;;;;;;;5.97;4.63;;;;;;;15.21;72.98;101770.94;5002548;28;20118;-70
2022/05/18 00:26:52;;;;;;;7.35;4.93;;;;;;;15.22;72.82;101768.06;4982656;28;20072;-70
2022/05/18 00:29:18;;;;;;;7.80;4.82;;;;;;;15.17;72.58;101761.19;4985922;28;20169;-69
2022/05/18 00:31:46;;;;;;;8.18;5.20;;;;;;;15.18;72.90;101768.41;5011166;28;20065;-74
2022/05/18 00:34:12;;;;;;;8.30;5.38;;;;;;;15.16;73.04;101771.28;4981176;28;20104;-77
2022/05/18 00:36:37;;;;;;;8.57;5.38;;;;;;;15.13;72.94;101773.38;4981767;28;20470;-69
2022/05/18 00:39:03;;;;;;;8.48;4.82;;;;;;;15.10;73.07;101763.50;4990319;28;20043;-76
2022/05/18 00:41:28;;;;;;;11.52;5.22;;;;;;;15.08;72.61;101762.78;4984953;28;20526;-70
2022/05/18 00:43:55;;;;;;;8.50;5.05;;;;;;;15.06;72.80;101767.47;4986324;28;20097;-77
2022/05/18 00:46:21;;;;;;;9.05;5.20;;;;;;;15.05;73.09;101772.09;5013273;28;20030;-71
2022/05/18 00:48:48;;;;;;;9.10;5.18;;;;;;;15.02;72.68;101771.47;4983343;28;20035;-77
2022/05/18 00:51:53;;;;;;;8.20;5.43;;;;;;;15.04;71.89;101766.75;5010662;28;20073;-73
2022/05/18 00:54:29;;;;;;;7.50;6.10;;;;;;;15.01;72.78;101765.13;4997530;28;20042;-71
2022/05/18 00:57:06;;;;;;;7.47;5.68;;;;;;;15.01;72.72;101764.22;4987374;28;20097;-70
2022/05/18 00:59:38;;;;;;;7.75;5.25;;;;;;;15.00;73.23;101767.97;4990287;28;20113;-76
2022/05/18 01:02:05;;;;;;;9.02;5.10;;;;;;;14.94;73.53;101768.44;4987536;28;20031;-70
2022/05/18 01:04:31;;;;;;;8.25;5.63;;;;;;;14.90;73.69;101765.06;4990832;28;20034;-70
2022/05/18 01:07:08;;;;;;;7.85;5.40;;;;;;;14.87;73.66;101767.13;4991504;28;20049;-69
2022/05/18 01:09:37;;;;;;;11.48;5.50;;;;;;;14.81;73.92;101773.97;4994171;28;20889;-69
2022/05/18 01:12:05;;;;;;;6.95;5.13;;;;;;;14.80;74.06;101774.97;4992315;28;20034;-70
2022/05/18 01:14:59;;;;;;;8.55;5.80;;;;;;;14.83;72.94;101782.06;4988895;28;20039;-78
2022/05/18 01:17:27;;;;;;;8.05;5.60;;;;;;;14.78;73.68;101775.09;4988044;28;20041;-78
2022/05/18 01:19:57;;;;;;;9.25;5.57;;;;;;;14.78;73.45;101776.94;4986141;28;20125;-70
2022/05/18 01:22:41;;;;;;;8.18;5.95;;;;;;;14.77;73.13;101773.31;4985523;28;20042;-78
2022/05/18 01:25:50;;;;;;;8.27;5.95;;;;;;;14.73;73.19;101771.78;5014575;28;20039;-70
2022/05/18 01:28:16;;;;;;;8.93;5.10;;;;;;;14.61;74.03;101764.50;4987205;28;20037;-77
2022/05/18 01:30:47;;;;;;;9.80;5.60;;;;;;;14.56;74.42;101768.59;4986410;28;20398;-70
2022/05/18 01:33:15;;;;;;;7.65;5.65;;;;;;;14.52;75.00;101771.53;4986531;28;20038;-69
2022/05/18 01:35:43;;;;;;;9.18;5.63;;;;;;;14.47;75.38;101768.25;4981901;28;20370;-68
2022/05/18 01:38:12;;;;;;;8.18;6.30;;;;;;;14.36;77.09;101764.53;4978172;28;20045;-76
2022/05/18 01:40:59;;;;;;;13.15;7.30;;;;;;;14.26;76.46;101764.34;4989140;28;20133;-70
2022/05/18 01:43:33;;;;;;;9.15;6.63;;;;;;;14.24;75.96;101777.28;4980600;28;20084;-70
2022/05/18 01:46:02;;;;;;;8.85;7.20;;;;;;;14.23;76.38;101773.66;4980058;28;20037;-76
2022/05/18 01:48:35;;;;;;;11.95;8.13;;;;;;;14.23;77.63;101770.06;4982293;28;20389;-69
2022/05/18 01:51:02;;;;;;;13.85;7.32;;;;;;;14.18;77.50;101775.88;5012640;28;20050;-77
2022/05/18 01:53:29;;;;;;;14.57;7.72;;;;;;;14.11;78.91;101762.72;4993156;28;20015;-69
2022/05/18 01:55:56;;;;;;;11.75;6.90;;;;;;;14.16;77.48;101766.88;5024851;28;20414;-77
2022/05/18 01:58:22;;;;;;;10.23;6.75;;;;;;;14.19;76.39;101771.28;4971422;28;20062;-78
2022/05/18 02:00:48;;;;;;;10.55;6.97;;;;;;;14.21;75.83;101769.28;4974350;28;20035;-70
2022/05/18 02:03:14;;;;;;;12.73;6.90;;;;;;;14.20;75.73;101773.00;4983767;28;20044;-73
2022/05/18 02:05:40;;;;;;;10.60;6.93;;;;;;;14.18;76.06;101775.88;4985495;28;20035;-70
2022/05/18 02:08:06;;;;;;;10.80;6.43;;;;;;;14.17;76.32;101767.75;4982492;28;20030;-69
2022/05/18 02:10:32;;;;;;;12.48;6.30;;;;;;;14.16;76.43;101774.22;4989917;28;20042;-70
2022/05/18 02:12:58;;;;;;;10.45;6.80;;;;;;;14.14;76.70;101773.47;4986895;28;20038;-70
2022/05/18 02:15:23;;;;;;;11.13;7.45;;;;;;;14.13;76.45;101764.38;4991164;28;20022;-70
2022/05/18 02:17:50;;;;;;;10.85;6.28;;;;;;;14.12;76.59;101769.94;4988294;28;20027;-70
2022/05/18 02:20:16;;;;;;;14.05;6.50;;;;;;;14.10;76.64;101770.06;4978403;28;20037;-78
2022/05/18 02:22:41;;;;;;;14.57;6.90;;;;;;;14.09;76.67;101771.06;4982767;28;20074;-76
2022/05/18 02:25:07;;;;;;;12.05;7.35;;;;;;;14.06;77.19;101759.47;4992467;28;20532;-70
2022/05/18 02:27:32;;;;;;;10.77;6.95;;;;;;;14.00;78.08;101753.44;4983200;28;20070;-77
2022/05/18 02:29:58;;;;;;;15.88;8.52;;;;;;;13.99;78.82;101753.56;4992591;28;20112;-69
2022/05/18 02:32:23;;;;;;;11.55;7.55;;;;;;;13.98;77.25;101755.41;4988341;28;20089;-77
2022/05/18 02:34:49;;;;;;;11.90;7.68;;;;;;;13.95;76.79;101750.16;4986347;28;21461;-70
2022/05/18 02:37:15;;;;;;;12.32;7.38;;;;;;;13.95;76.90;101760.25;4985981;28;20046;-71
2022/05/18 02:39:40;;;;;;;9.30;6.88;;;;;;;13.94;76.77;101761.19;4992591;28;20089;-70
2022/05/18 02:42:06;;;;;;;10.43;7.28;;;;;;;13.95;76.42;101760.25;4983043;28;20039;-70
2022/05/18 02:44:31;;;;;;;10.75;7.35;;;;;;;13.96;77.13;101756.50;4989376;28;20073;-70
2022/05/18 02:46:59;;;;;;;8.63;6.63;;;;;;;13.97;76.68;101761.00;4987181;28;20035;-70
2022/05/18 02:49:26;;;;;;;10.73;7.70;;;;;;;13.97;76.72;101764.59;4980092;28;20041;-77
2022/05/18 02:51:51;;;;;;;13.52;7.35;;;;;;;13.99;77.27;101762.66;4974449;28;20038;-69
2022/05/18 02:57:01;;;;;;;9.48;6.85;;;;;;;14.01;76.92;101765.25;4980299;28;20054;-71
2022/05/18 02:59:27;;;;;;;10.27;6.93;;;;;;;13.98;77.97;101769.09;5016918;28;20410;-78
2022/05/18 03:01:52;;;;;;;14.57;8.15;;;;;;;14.00;77.77;101764.38;4986309;28;20049;-77
2022/05/18 03:04:18;;;;;;;11.45;7.38;;;;;;;14.02;77.35;101765.13;4987734;28;20137;-69
2022/05/18 03:06:44;;;;;;;14.30;7.97;;;;;;;14.02;78.55;101769.75;4990773;28;20031;-75
2022/05/18 03:09:09;;;;;;;13.52;8.57;;;;;;;14.02;78.61;101781.56;5004043;28;20042;-77
2022/05/18 03:11:35;;;;;;;15.07;8.40;;;;;;;14.07;77.32;101772.16;5014836;28;20478;-71
2022/05/18 03:14:00;;;;;;;15.10;9.18;;;;;;;14.07;79.26;101772.16;4991777;28;20038;-77
2022/05/18 03:16:27;;;;;;;18.60;9.35;;;;;;;14.11;79.67;101776.41;4990728;28;20057;-70
2022/05/18 03:18:53;;;;;;;13.05;8.48;;;;;;;14.15;78.47;101780.69;4977996;28;20043;-70
2022/05/18 03:24:03;;;;;;;11.00;8.73;;;;;;;14.16;77.88;101786.03;4985820;28;20039;-71
2022/05/18 03:26:29;;;;;;;14.05;8.35;;;;;;;14.18;78.10;101792.28;4983390;28;20072;-79
2022/05/18 03:28:56;;;;;;;15.00;9.05;;;;;;;14.19;78.26;101793.16;4980719;28;20034;-71
2022/05/18 03:31:23;;;;;;;14.05;8.63;;;;;;;14.21;78.76;101800.25;4991358;28;20049;-71
2022/05/18 03:33:49;;;;;;;13.05;8.77;;;;;;;14.24;79.07;101791.84;4982417;28;20030;-77
2022/05/18 03:36:17;;;;;;;14.68;8.98;;;;;;;14.28;78.80;101797.97;4971719;28;20034;-77
2022/05/18 03:38:44;;;;;;;14.75;8.90;;;;;;;14.29;79.00;101803.31;4986651;28;20051;-69
2022/05/18 03:41:09;;;;;;;13.13;8.63;;;;;;;14.29;79.05;101792.38;4981753;28;20026;-77
2022/05/18 03:43:36;;;;;;;16.73;8.50;;;;;;;14.31;79.48;101805.94;5022364;28;20052;-77
2022/05/18 03:46:03;;;;;;;12.00;9.00;;;;;;;14.33;78.76;101803.97;4979363;28;20065;-77
2022/05/18 03:48:29;;;;;;;13.60;8.57;;;;;;;14.36;78.86;101802.88;4984183;28;20037;-77
2022/05/18 03:50:57;;;;;;;10.15;8.45;;;;;;;14.35;78.94;101807.47;5009321;28;20504;-69
2022/05/18 03:53:22;;;;;;;14.27;8.85;;;;;;;14.36;78.54;101805.59;4991111;28;20050;-70
2022/05/18 03:55:48;;;;;;;15.50;8.57;;;;;;;14.36;79.30;101802.88;4990832;28;20050;-69
2022/05/18 03:58:13;;;;;;;15.50;9.70;;;;;;;14.38;79.40;101806.38;4987774;28;20053;-72
2022/05/18 04:00:42;;;;;;;12.25;9.10;;;;;;;14.38;78.53;101812.72;4991429;28;20030;-69
2022/05/18 04:03:08;;;;;;;13.13;9.50;;;;;;;14.40;79.53;101804.41;4983659;28;20532;-69
2022/05/18 04:05:37;;;;;;;16.70;9.32;;;;;;;14.40;80.79;101804.41;4980467;28;20034;-71
2022/05/18 04:08:03;;;;;;;16.75;9.45;;;;;;;14.42;80.93;101807.91;4980747;28;20033;-70
2022/05/18 04:10:28;;;;;;;16.33;9.77;;;;;;;14.45;80.40;101800.31;4977167;28;20022;-77
2022/05/18 04:12:54;;;;;;;11.98;9.75;;;;;;;14.49;80.51;101807.38;4988185;28;20034;-69
2022/05/18 04:15:19;;;;;;;17.73;9.73;;;;;;;14.53;81.56;101797.94;4988230;28;20030;-79
2022/05/18 04:17:46;;;;;;;12.00;9.35;;;;;;;14.61;80.14;101804.72;4980509;28;20034;-77
2022/05/18 04:20:13;;;;;;;13.30;9.07;;;;;;;14.73;79.78;101806.53;4981695;28;20039;-77
2022/05/18 04:22:40;;;;;;;14.30;9.50;;;;;;;14.81;81.13;101806.84;4984827;28;20429;-69
2022/05/18 04:25:06;;;;;;;17.15;9.90;;;;;;;14.90;79.60;101808.03;4990569;28;20034;-77
2022/05/18 04:27:32;;;;;;;13.85;8.68;;;;;;;15.00;81.03;101812.69;4981416;28;20046;-76
2022/05/18 04:29:58;;;;;;;14.75;9.38;;;;;;;15.12;80.43;101808.16;4990590;28;20038;-69
2022/05/18 04:32:24;;;;;;;13.18;8.80;;;;;;;15.22;79.55;101802.84;5015297;28;20022;-69
2022/05/18 04:34:50;;;;;;;13.10;8.13;;;;;;;15.36;80.20;101812.75;4987133;28;20449;-70
2022/05/18 04:37:16;;;;;;;11.55;9.20;;;;;;;15.45;80.88;101817.50;4990693;28;20064;-69
2022/05/18 04:39:42;;;;;;;11.70;8.48;;;;;;;15.55;80.10;101813.06;4990229;28;20510;-75
2022/05/18 04:42:08;;;;;;;11.90;8.73;;;;;;;15.65;80.04;101814.13;4982152;28;20030;-70
2022/05/18 04:44:33;;;;;;;13.13;8.75;;;;;;;15.75;80.13;101819.75;4986392;28;20045;-76
2022/05/18 04:46:59;;;;;;;14.80;7.95;;;;;;;15.86;77.75;101832.66;4985720;28;20034;-78
2022/05/18 04:49:27;;;;;;;23.30;8.63;;;;;;;15.92;78.34;101824.78;4978867;28;20026;-77
2022/05/18 04:51:53;;;;;;;36.78;9.07;;;;;;;15.98;79.22;101820.66;4974444;28;20491;-69
2022/05/18 04:54:18;;;;;;;26.88;9.68;;;;;;;16.06;80.25;101829.19;4991255;28;20061;-69
2022/05/18 04:56:44;;;;;;;28.95;8.98;;;;;;;16.10;79.67;101830.69;4978247;28;20104;-70
2022/05/18 04:59:09;;;;;;;20.77;9.15;;;;;;;16.11;78.75;101834.31;4977523;28;20471;-71
2022/05/18 05:01:35;;;;;;;17.50;9.27;;;;;;;16.14;78.70;101840.44;4974022;28;20039;-70
2022/05/18 05:04:02;;;;;;;17.40;9.73;;;;;;;16.16;79.99;101840.28;4979692;28;20450;-68
2022/05/18 05:06:27;;;;;;;16.27;10.38;;;;;;;16.20;80.73;101844.53;4973051;28;20130;-75
2022/05/18 05:08:53;;;;;;;13.18;9.38;;;;;;;16.26;79.16;101844.91;4977577;28;20534;-75
2022/05/18 05:11:18;;;;;;;15.20;10.02;;;;;;;16.37;78.82;101851.41;4974155;28;20054;-75
2022/05/18 05:13:44;;;;;;;16.00;10.90;;;;;;;16.50;79.61;101852.16;4992638;28;20045;-73
2022/05/18 05:16:11;;;;;;;15.63;9.95;;;;;;;16.66;78.60;101858.16;4977014;28;20323;-74
2022/05/18 05:18:37;;;;;;;14.38;10.00;;;;;;;16.82;78.41;101861.41;4988589;28;20117;-71
2022/05/18 05:21:03;;;;;;;12.50;9.77;;;;;;;17.02;77.10;101857.03;4985569;28;20030;-69
2022/05/18 05:23:28;;;;;;;22.20;10.32;;;;;;;17.26;77.77;101855.97;4975600;28;20599;-70
2022/05/18 05:25:55;;;;;;;16.95;10.70;;;;;;;17.46;77.03;101857.03;4974366;28;20074;-74
2022/05/18 05:28:22;;;;;;;15.57;10.38;;;;;;;17.63;76.48;101859.22;4985983;28;20031;-70
2022/05/18 05:30:47;;;;;;;15.13;10.25;;;;;;;17.74;76.03;101861.06;4973870;28;20431;-75
2022/05/18 05:33:13;;;;;;;16.73;9.50;;;;;;;17.85;75.33;101858.22;4979718;28;20046;-70
2022/05/18 05:35:42;;;;;;;13.82;9.30;;;;;;;17.95;74.57;101863.81;4967152;28;20486;-70
2022/05/18 05:38:09;;;;;;;11.10;8.90;;;;;;;18.03;74.04;101862.13;4973757;28;20042;-70
2022/05/18 05:40:35;;;;;;;13.85;8.52;;;;;;;18.08;73.81;101870.84;4983417;28;20048;-75
2022/05/18 05:43:08;;;;;;;11.77;8.30;;;;;;;18.19;73.98;101875.44;4991204;28;20034;-69
2022/05/18 05:45:34;;;;;;;15.30;6.63;;;;;;;18.34;72.23;101874.06;4993378;28;20089;-74
2022/05/18 05:48:01;;;;;;;13.70;6.97;;;;;;;18.47;73.26;101884.88;4985005;28;20477;-75
2022/05/18 05:50:27;;;;;;;9.98;6.60;;;;;;;18.64;72.91;101883.34;4979789;28;20093;-75
2022/05/18 05:52:53;;;;;;;9.98;6.93;;;;;;;18.79;73.96;101878.38;5025019;28;20097;-70
2022/05/18 05:55:19;;;;;;;7.15;6.22;;;;;;;18.95;71.86;101880.63;4993085;28;20053;-71
2022/05/18 05:57:44;;;;;;;13.85;6.00;;;;;;;19.11;70.93;101892.84;4991352;28;20040;-70
2022/05/18 06:00:10;;;;;;;9.57;6.35;;;;;;;19.26;70.14;101893.34;4989034;28;20129;-70
2022/05/18 06:02:38;;;;;;;9.70;5.93;;;;;;;19.42;69.86;101892.75;4990739;28;20532;-75
2022/05/18 06:05:04;;;;;;;7.32;5.45;;;;;;;19.57;69.50;101895.97;4989294;28;20030;-70
2022/05/18 06:07:31;;;;;;;7.90;5.85;;;;;;;19.69;67.68;101892.09;4975513;28;20452;-74
2022/05/18 06:09:56;;;;;;;11.70;5.47;;;;;;;19.77;67.06;101888.59;4992968;28;20122;-75
2022/05/18 06:12:25;;;;;;;11.23;6.32;;;;;;;19.80;67.28;101886.41;5019289;28;20120;-73
2022/05/18 06:14:50;;;;;;;10.75;6.03;;;;;;;19.85;67.14;101885.97;4988412;28;20035;-75
2022/05/18 06:17:15;;;;;;;9.43;5.20;;;;;;;19.91;66.79;101892.81;4983167;28;20037;-69
2022/05/18 06:19:41;;;;;;;11.38;5.72;;;;;;;19.95;66.42;101892.38;4987756;28;20113;-73
2022/05/18 06:22:07;;;;;;;9.50;5.43;;;;;;;19.98;68.42;101902.25;4987869;28;20039;-71
2022/05/18 06:24:32;;;;;;;7.55;5.65;;;;;;;20.06;68.60;101910.69;5018394;28;20042;-75
2022/05/18 06:26:59;;;;;;;8.57;5.28;;;;;;;20.07;67.39;101918.84;4986221;28;20043;-70
2022/05/18 06:29:25;;;;;;;10.45;5.43;;;;;;;20.15;67.57;101922.75;4984644;28;20060;-69
2022/05/18 06:31:50;;;;;;;9.57;5.28;;;;;;;20.27;68.23;101918.81;4988898;28;20022;-76
2022/05/18 06:34:15;;;;;;;12.25;5.60;;;;;;;20.37;68.27;101920.50;4984967;28;20049;-70
2022/05/18 06:36:41;;;;;;;9.90;5.22;;;;;;;20.45;65.79;101924.44;5007498;28;20150;-69
2022/05/18 06:39:06;;;;;;;7.68;5.30;;;;;;;20.51;65.78;101919.22;5007446;28;20042;-76
2022/05/18 06:41:33;;;;;;;11.20;5.30;;;;;;;20.59;65.10;101927.63;4990470;28;20045;-70
2022/05/18 06:44:02;;;;;;;14.20;5.25;;;;;;;20.68;64.24;101928.63;5023834;28;20062;-69
2022/05/18 06:46:29;;;;;;;11.98;5.15;;;;;;;20.74;62.73;101938.22;4978711;28;20383;-75
2022/05/18 06:48:55;;;;;;;13.02;5.18;;;;;;;20.81;62.61;101931.06;4976637;28;20041;-76
2022/05/18 06:51:30;;;;;;;8.75;4.70;;;;;;;20.93;63.56;101927.06;4989673;28;20038;-70
2022/05/18 06:53:56;;;;;;;9.30;5.30;;;;;;;20.94;62.70;101927.94;4990898;28;20033;-69
2022/05/18 06:56:28;;;;;;;12.15;5.10;;;;;;;20.99;61.93;101932.00;4990250;28;20096;-70
2022/05/18 06:58:54;;;;;;;10.13;5.60;;;;;;;21.05;61.21;101925.00;4991787;28;20088;-75
2022/05/18 07:01:20;;;;;;;8.45;5.13;;;;;;;21.22;61.69;101937.16;4991576;28;20553;-70
2022/05/18 07:03:46;;;;;;;10.73;5.65;;;;;;;21.25;61.76;101943.22;4987402;28;20125;-71
2022/05/18 07:06:14;;;;;;;13.60;6.47;;;;;;;21.26;61.07;101944.09;4980887;28;20121;-70
2022/05/18 07:08:41;;;;;;;12.65;6.72;;;;;;;21.22;61.16;101957.38;4992078;28;20030;-69
2022/05/18 07:11:06;;;;;;;8.70;6.68;;;;;;;21.18;60.43;101957.84;4990155;28;20026;-75
2022/05/18 07:13:33;;;;;;;13.55;7.00;;;;;;;21.12;61.79;101959.31;4978929;28;20096;-75
2022/05/18 07:15:59;;;;;;;15.43;6.57;;;;;;;21.23;60.97;101958.25;4987315;28;20039;-77
2022/05/18 07:18:29;;;;;;;16.63;8.40;;;;;;;21.28;59.86;101953.13;4981889;28;20089;-72
2022/05/18 07:20:56;;;;;;;12.80;8.60;;;;;;;21.51;60.74;101957.25;4973489;28;20046;-69
2022/05/18 07:23:23;;;;;;;14.75;8.57;;;;;;;21.83;59.63;101953.97;4990911;28;20038;-74
2022/05/18 07:25:50;;;;;;;16.80;7.68;;;;;;;22.28;59.41;101960.47;4988534;28;20493;-70
2022/05/18 07:28:15;;;;;;;12.63;7.65;;;;;;;22.48;59.80;101958.38;4988403;28;20045;-77
2022/05/18 07:30:41;;;;;;;14.88;7.40;;;;;;;22.54;60.18;101964.13;5005240;28;20478;-73
2022/05/18 07:33:06;;;;;;;11.30;7.15;;;;;;;22.52;58.15;101966.22;4985331;28;20490;-69
2022/05/18 07:35:32;;;;;;;13.75;7.18;;;;;;;22.58;58.93;101968.34;4987983;28;20034;-74
2022/05/18 07:37:58;;;;;;;14.05;7.80;;;;;;;22.59;59.36;101964.53;4986978;28;20074;-75
2022/05/18 07:40:24;;;;;;;18.33;7.68;;;;;;;22.65;58.60;101961.09;4984697;28;20473;-75
2022/05/18 07:42:52;;;;;;;11.70;6.95;;;;;;;22.72;58.32;101954.91;4982471;28;20112;-75
2022/05/18 07:45:20;;;;;;;13.32;7.50;;;;;;;22.62;59.05;101964.22;4991351;28;20026;-77
2022/05/18 07:47:46;;;;;;;13.75;6.80;;;;;;;22.79;60.71;101961.53;4980459;28;20042;-74
2022/05/18 07:50:12;;;;;;;13.73;7.40;;;;;;;22.87;59.72;101964.34;4977945;28;20039;-69
2022/05/18 07:52:38;;;;;;;12.52;7.15;;;;;;;23.03;59.01;101977.47;4995095;28;20038;-69
2022/05/18 07:55:04;;;;;;;11.38;7.22;;;;;;;23.33;58.63;101978.84;4986442;28;20051;-69
2022/05/18 07:57:29;;;;;;;11.70;7.90;;;;;;;23.58;58.17;101980.66;4986275;28;20037;-69
2022/05/18 07:59:59;;;;;;;13.65;7.97;;;;;;;23.85;56.45;101984.25;4973498;28;20045;-76
2022/05/18 08:02:24;;;;;;;17.23;8.73;;;;;;;23.88;56.90;101983.94;4986654;28;20541;-76
2022/05/18 08:04:49;;;;;;;14.18;8.10;;;;;;;23.95;56.29;101984.09;4986705;28;20121;-72
2022/05/18 08:07:15;;;;;;;13.98;8.73;;;;;;;24.08;55.77;101981.69;4987732;28;20037;-75
2022/05/18 08:15:05;;;;;;;11.43;7.57;;;;;;;24.03;55.77;101996.09;4987412;28;20034;-71
2022/05/18 08:15:10;;;;;;;11.23;7.93;;;;;;;24.39;55.72;101995.84;4991128;28;20078;-69
2022/05/18 08:17:35;;;;;;;14.15;7.88;;;;;;;24.66;54.80;101986.22;4985108;28;20054;-74
2022/05/18 08:20:06;;;;;;;15.25;8.20;;;;;;;24.89;55.43;101981.66;4982324;28;20031;-69
2022/05/18 08:22:32;;;;;;;15.60;8.35;;;;;;;24.98;53.47;101990.88;4982815;28;20506;-69
2022/05/18 08:24:57;;;;;;;16.70;9.40;;;;;;;25.27;53.17;101975.50;4987794;28;20026;-75
2022/05/18 08:27:22;;;;;;;12.10;9.45;;;;;;;25.45;52.50;101973.31;4979459;28;20038;-75
2022/05/18 08:29:48;;;;;;;16.40;8.73;;;;;;;25.89;53.01;101978.34;4986863;28;20039;-69
2022/05/18 08:32:13;;;;;;;12.52;8.00;;;;;;;26.17;50.90;101984.25;4985306;28;20058;-71
2022/05/18 08:34:38;;;;;;;9.85;7.82;;;;;;;26.73;49.98;101989.56;4989126;28;20116;-76
2022/05/18 08:37:04;;;;;;;13.75;7.57;;;;;;;26.93;49.85;101987.94;4988969;28;20418;-68
2022/05/18 08:39:29;;;;;;;13.80;7.78;;;;;;;26.71;48.82;101987.78;4986023;28;20049;-77
2022/05/18 08:41:57;;;;;;;10.48;7.15;;;;;;;26.95;50.02;101985.81;4976951;28;20113;-69
2022/05/18 08:44:30;;;;;;;10.15;6.65;;;;;;;27.05;50.32;101988.34;4990402;28;20038;-69
2022/05/18 08:47:05;;;;;;;14.27;6.32;;;;;;;27.38;49.53;101995.31;4986682;28;20031;-76
2022/05/18 08:49:54;;;;;;;12.45;6.13;;;;;;;27.82;49.08;102002.75;4987246;28;20026;-76
2022/05/18 08:52:39;;;;;;;8.02;5.95;;;;;;;28.06;46.72;101993.13;4984549;28;20041;-74
2022/05/18 08:55:58;;;;;;;9.30;6.20;;;;;;;28.22;49.17;102000.44;4990243;28;20405;-75
2022/05/18 08:58:34;;;;;;;9.68;6.20;;;;;;;28.35;46.37;101992.19;4987707;28;20152;-69
2022/05/18 09:01:36;;;;;;;10.20;5.70;;;;;;;28.46;48.72;101991.66;4990540;28;20042;-69
2022/05/18 09:04:40;;;;;;;12.50;6.88;;;;;;;28.59;48.69;101999.31;4983931;28;20486;-75
2022/05/18 09:07:11;;;;;;;12.55;8.43;;;;;;;28.62;46.52;101998.88;5003236;28;20089;-74
2022/05/18 09:10:14;;;;;;;10.32;5.97;;;;;;;28.84;47.45;102001.66;5021765;28;20030;-75
2022/05/18 09:12:43;;;;;;;14.50;6.78;;;;;;;28.73;46.31;101992.75;4986299;28;20037;-69
2022/05/18 09:15:13;;;;;;;11.25;6.22;;;;;;;28.95;43.94;101992.69;4990459;28;20042;-69
2022/05/18 09:18:17;;;;;;;8.85;6.63;;;;;;;29.08;44.39;101989.13;4981122;28;20031;-68
2022/05/18 09:21:07;;;;;;;9.73;5.32;;;;;;;29.12;45.80;101985.72;4969734;28;20067;-69
2022/05/18 09:23:55;;;;;;;10.00;5.47;;;;;;;29.40;46.26;101990.41;4977540;28;20045;-74
2022/05/18 09:26:27;;;;;;;4.55;2.90;;;;;;;29.31;40.72;101998.13;4988432;28;20662;-68
2022/05/18 09:29:08;;;;;;;4.60;2.92;;;;;;;28.91;42.18;102002.53;4982538;28;20041;-69
2022/05/18 09:31:57;;;;;;;4.10;2.85;;;;;;;28.76;42.99;101997.06;4992940;28;20038;-74
2022/05/18 09:34:42;;;;;;;10.65;4.30;;;;;;;28.84;44.36;102002.50;4987253;28;20038;-69
2022/05/18 09:37:13;;;;;;;16.67;4.35;;;;;;;28.66;44.31;102004.94;5011707;28;20034;-74
2022/05/18 09:39:43;;;;;;;13.95;3.83;;;;;;;28.79;42.92;101998.59;4993749;28;20177;-74
2022/05/18 09:42:14;;;;;;;23.42;4.35;;;;;;;28.64;43.91;101993.97;4986719;28;20049;-69
2022/05/18 09:45:11;;;;;;;7.07;4.00;;;;;;;28.91;44.41;102003.44;4994025;28;20038;-74
2022/05/18 09:47:51;;;;;;;7.18;4.32;;;;;;;29.24;44.01;101994.41;4976735;28;20129;-75
2022/05/18 09:50:17;;;;;;;6.18;3.40;;;;;;;29.13;42.73;102003.38;4995795;28;20046;-74
2022/05/18 09:52:44;;;;;;;6.93;3.20;;;;;;;28.58;42.01;102002.28;4989964;28;20030;-69
2022/05/18 09:55:14;;;;;;;5.75;2.70;;;;;;;28.06;43.63;102006.25;4993424;28;20058;-68
2022/05/18 09:57:53;;;;;;;3.65;2.03;;;;;;;28.07;44.10;102005.19;4985034;28;20415;-68
2022/05/18 10:00:25;;;;;;;4.80;2.40;;;;;;;28.11;43.85;101996.19;4987502;28;20129;-68
2022/05/18 10:08:33;;;;;;;5.10;2.65;;;;;;;29.14;43.53;102003.16;4993012;28;20043;-68
2022/05/18 10:11:06;;;;;;;4.30;2.42;;;;;;;29.53;42.51;102006.44;4984415;28;20038;-75
2022/05/18 10:13:35;;;;;;;4.78;2.90;;;;;;;29.84;40.39;101995.56;4986111;28;20042;-74
2022/05/18 10:16:36;;;;;;;4.18;2.42;;;;;;;30.16;43.05;101990.28;4992945;28;20041;-74
2022/05/18 10:19:03;;;;;;;4.27;2.50;;;;;;;30.21;40.18;101994.19;4986531;28;20034;-68
2022/05/18 10:21:51;;;;;;;6.13;2.17;;;;;;;30.34;40.93;101992.47;4987380;28;20459;-75
2022/05/18 10:24:35;;;;;;;5.20;2.15;;;;;;;30.60;40.75;101994.47;4985771;28;20402;-69
2022/05/18 10:27:28;;;;;;;4.63;1.90;;;;;;;30.73;39.73;102002.88;4984121;28;20034;-73
2022/05/18 10:30:18;;;;;;;4.97;1.95;;;;;;;30.82;38.58;101997.91;4990240;28;20038;-68
2022/05/18 10:32:57;;;;;;;4.20;1.80;;;;;;;30.74;39.83;102005.50;4990966;28;20046;-72
2022/05/18 10:35:38;;;;;;;3.55;1.52;;;;;;;30.96;38.35;102002.44;4972866;28;20066;-69
2022/05/18 10:38:19;;;;;;;4.25;1.85;;;;;;;31.04;39.95;102002.22;4986811;28;20038;-69
2022/05/18 10:40:45;;;;;;;2.05;1.88;;;;;;;30.97;36.89;101990.13;4986847;28;20046;-69
2022/05/18 10:43:29;;;;;;;4.13;1.77;;;;;;;31.21;38.26;101991.38;4986722;28;20038;-68
2022/05/18 10:46:19;;;;;;;5.80;2.33;;;;;;;31.09;37.29;101995.94;4992503;28;20034;-74
2022/05/18 10:48:58;;;;;;;6.65;2.50;;;;;;;31.05;37.68;101987.06;4978097;28;20496;-73
2022/05/18 10:51:39;;;;;;;4.22;2.00;;;;;;;31.40;39.39;101984.00;4984655;28;20421;-68
2022/05/18 10:54:24;;;;;;;6.80;2.23;;;;;;;31.51;38.41;101983.28;4990559;28;20069;-69
2022/05/18 10:56:51;;;;;;;8.02;2.83;;;;;;;31.27;35.71;101976.47;4987710;28;20314;-74
2022/05/18 10:59:32;;;;;;;3.72;2.42;;;;;;;31.15;36.45;101981.88;4992084;28;20034;-74
2022/05/18 11:02:07;;;;;;;4.03;2.40;;;;;;;31.25;37.06;101981.41;4979472;28;20080;-69
2022/05/18 11:05:08;;;;;;;9.63;2.67;;;;;;;31.40;38.63;102000.88;4986098;28;20046;-74
2022/05/18 11:07:33;;;;;;;6.70;2.80;;;;;;;31.65;35.96;101984.09;5005820;28;20513;-69
2022/05/18 11:09:59;;;;;;;5.70;3.13;;;;;;;31.56;36.08;101991.06;4992034;28;20034;-74
2022/05/18 11:13:00;;;;;;;4.25;2.60;;;;;;;31.85;37.82;101987.75;4988189;28;20045;-69
2022/05/18 11:15:31;;;;;;;5.78;3.17;;;;;;;31.56;35.60;101980.69;4991879;28;20109;-75
2022/05/18 11:17:56;;;;;;;7.25;2.75;;;;;;;31.21;35.69;101981.00;5021472;28;20038;-75
2022/05/18 11:20:28;;;;;;;11.60;3.50;;;;;;;31.29;37.74;101977.13;4980568;28;20039;-68
2022/05/18 11:23:17;;;;;;;13.15;3.83;;;;;;;31.52;37.18;101979.38;4987406;28;20528;-74
2022/05/18 11:26:10;;;;;;;8.38;3.50;;;;;;;31.75;36.78;101976.03;4982919;28;20042;-74
2022/05/18 11:28:58;;;;;;;7.18;3.42;;;;;;;31.54;37.13;101977.22;4989604;28;20474;-74
2022/05/18 11:31:49;;;;;;;10.35;3.58;;;;;;;31.28;37.11;101974.50;4991542;28;20038;-68
2022/05/18 11:34:32;;;;;;;5.28;2.80;;;;;;;31.52;38.10;101970.94;4989791;28;20146;-73
2022/05/18 11:37:02;;;;;;;4.53;2.72;;;;;;;31.78;36.71;101969.97;4985955;28;20085;-69
2022/05/18 11:39:45;;;;;;;5.90;2.75;;;;;;;32.20;36.76;101964.75;4983496;28;20397;-74
2022/05/18 11:42:13;;;;;;;6.25;3.40;;;;;;;32.16;34.06;101969.97;4984428;28;20113;-75
2022/05/18 11:44:57;;;;;;;7.68;2.88;;;;;;;32.25;36.60;101965.78;4966779;28;20045;-69
2022/05/18 11:47:45;;;;;;;5.55;3.72;;;;;;;32.13;36.43;101964.81;4984405;28;20031;-73